Time;durP1;ratioP1;P1;durP2;ratioP2;P2;SDS_P1;SDS_P2;PMS_P1;PMS_P2;Temp;Humidity;BMP_temperature;BMP_pressure;BME280_temperature;BME280_humidity;BME280_pressure;Samples;Min_cycle;Max_cycle;Signal;HPM_P1;HPM_P2
2022/03/22 00:00:17;;;;;;;9.93;8.93;;;10.20;84.90;;;;;;5052277;28;20299;-67
2022/03/22 00:02:45;;;;;;;9.93;8.93;;;10.30;85.60;;;;;;5051971;28;20660;-67
2022/03/22 00:05:15;;;;;;;11.98;9.23;;;10.40;87.50;;;;;;5051991;28;20196;-67
2022/03/22 00:07:43;;;;;;;9.80;8.85;;;10.40;85.00;;;;;;5052196;28;20776;-67
2022/03/22 00:10:11;;;;;;;13.05;11.13;;;10.40;83.50;;;;;;5052436;28;20323;-67
2022/03/22 00:12:39;;;;;;;10.50;9.40;;;10.30;84.10;;;;;;5051907;28;20622;-67
2022/03/22 00:15:08;;;;;;;10.35;9.35;;;10.20;85.90;;;;;;5056155;28;20247;-67
2022/03/22 00:17:56;;;;;;;10.43;9.45;;;10.30;85.80;;;;;;5051724;28;20204;-67
2022/03/22 00:20:27;;;;;;;11.77;10.57;;;10.30;85.90;;;;;;5052013;28;20655;-67
2022/03/22 00:22:55;;;;;;;11.43;9.52;;;10.20;82.70;;;;;;5050846;28;20212;-68
2022/03/22 00:25:24;;;;;;;11.30;9.00;;;10.10;85.90;;;;;;5051942;28;20295;-68
2022/03/22 00:27:53;;;;;;;10.23;9.13;;;10.10;84.30;;;;;;5051728;28;20231;-67
2022/03/22 00:30:23;;;;;;;11.85;8.85;;;10.10;86.20;;;;;;5051780;28;20253;-67
2022/03/22 00:32:54;;;;;;;9.55;8.75;;;10.20;86.80;;;;;;5051094;28;20211;-67
2022/03/22 00:35:25;;;;;;;9.40;8.50;;;10.10;86.00;;;;;;5051599;28;20196;-67
2022/03/22 00:38:11;;;;;;;9.32;8.43;;;10.10;86.60;;;;;;5082317;28;20785;-66
2022/03/22 00:40:40;;;;;;;11.48;10.07;;;10.00;86.90;;;;;;5068364;28;20733;-68
2022/03/22 00:43:09;;;;;;;11.50;10.30;;;10.00;85.20;;;;;;5068012;28;20634;-68
2022/03/22 00:45:37;;;;;;;10.25;9.15;;;10.00;86.70;;;;;;5067170;28;20265;-68
2022/03/22 00:48:07;;;;;;;11.70;9.43;;;10.00;86.30;;;;;;5063337;28;20195;-66
2022/03/22 00:50:38;;;;;;;9.60;8.70;;;10.00;86.90;;;;;;5068317;28;20261;-66
2022/03/22 00:53:08;;;;;;;10.10;9.18;;;9.90;88.40;;;;;;5068129;28;20227;-67
2022/03/22 00:55:36;;;;;;;10.30;9.30;;;9.90;87.60;;;;;;5068042;28;20237;-67
2022/03/22 00:58:06;;;;;;;9.75;8.85;;;9.90;86.70;;;;;;5068000;28;20763;-67
2022/03/22 01:00:34;;;;;;;11.18;10.15;;;10.00;87.20;;;;;;5068227;28;20344;-67
2022/03/22 01:03:05;;;;;;;9.80;8.90;;;10.00;88.00;;;;;;5066544;28;20214;-67
2022/03/22 01:05:35;;;;;;;10.50;9.52;;;9.90;87.60;;;;;;5067919;28;20206;-66
2022/03/22 01:08:06;;;;;;;10.75;9.40;;;9.90;87.30;;;;;;5067811;28;20196;-67
2022/03/22 01:10:37;;;;;;;11.02;9.93;;;9.90;88.50;;;;;;5067912;28;20223;-67
2022/03/22 01:13:07;;;;;;;11.25;10.13;;;9.90;89.70;;;;;;5067626;28;20228;-67
2022/03/22 01:15:36;;;;;;;12.23;10.18;;;9.90;88.10;;;;;;5067350;28;20196;-69
2022/03/22 01:18:06;;;;;;;10.43;9.48;;;9.90;87.10;;;;;;5065812;28;20635;-67
2022/03/22 01:20:36;;;;;;;10.00;9.00;;;9.80;88.50;;;;;;5064048;28;20215;-67
2022/03/22 01:23:07;;;;;;;9.80;9.00;;;9.80;89.10;;;;;;5067491;28;20278;-66
2022/03/22 01:25:37;;;;;;;10.77;9.77;;;9.70;88.60;;;;;;5067515;28;20242;-67
2022/03/22 01:28:07;;;;;;;11.50;9.07;;;9.70;88.10;;;;;;5067588;28;20909;-68
2022/03/22 01:30:37;;;;;;;10.07;9.07;;;9.40;88.30;;;;;;5067478;28;20600;-67
2022/03/22 01:33:06;;;;;;;11.63;9.30;;;9.40;88.50;;;;;;5067074;28;20727;-67
2022/03/22 01:35:35;;;;;;;12.68;10.07;;;9.30;88.40;;;;;;5067249;28;20755;-67
2022/03/22 01:38:03;;;;;;;10.43;9.43;;;9.30;87.70;;;;;;5066193;28;20263;-68
2022/03/22 01:40:31;;;;;;;10.40;9.13;;;9.20;89.00;;;;;;5067223;28;20629;-67
2022/03/22 01:43:01;;;;;;;9.63;8.70;;;9.30;88.30;;;;;;5066609;28;20290;-68
2022/03/22 01:45:29;;;;;;;10.45;9.45;;;9.30;90.20;;;;;;5062046;28;20257;-67
2022/03/22 01:47:59;;;;;;;10.95;8.52;;;9.40;89.00;;;;;;5061297;28;20231;-68
2022/03/22 01:50:29;;;;;;;14.07;9.15;;;9.40;88.50;;;;;;5058578;22;20243;-62
2022/03/22 01:52:58;;;;;;;9.95;9.07;;;9.30;88.00;;;;;;5027363;28;20232;-62
2022/03/22 01:55:26;;;;;;;10.30;9.30;;;9.30;88.30;;;;;;5033652;28;20201;-63
2022/03/22 01:57:55;;;;;;;11.57;9.48;;;9.20;86.10;;;;;;5033675;28;20307;-62
2022/03/22 02:00:24;;;;;;;11.02;9.90;;;9.20;87.70;;;;;;5033546;28;20311;-62
2022/03/22 02:05:55;;;;;;;9.63;8.63;;;9.20;88.60;;;;;;5033635;28;20200;-62
2022/03/22 02:08:26;;;;;;;11.45;9.27;;;9.30;87.40;;;;;;5033620;28;20303;-62
2022/03/22 02:10:55;;;;;;;9.35;8.45;;;9.30;89.30;;;;;;5033204;28;20263;-63
2022/03/22 02:13:23;;;;;;;9.80;8.55;;;9.20;89.20;;;;;;5033465;28;20288;-63
2022/03/22 02:15:56;;;;;;;10.73;8.75;;;9.30;86.90;;;;;;5044623;28;20243;-62
2022/03/22 02:18:25;;;;;;;11.05;9.98;;;9.30;88.20;;;;;;5033449;28;20221;-63
2022/03/22 02:20:53;;;;;;;10.57;9.57;;;9.20;86.40;;;;;;5027168;28;20255;-63
2022/03/22 02:23:27;;;;;;;11.15;9.10;;;9.20;89.10;;;;;;5026832;28;20232;-62
2022/03/22 02:25:56;;;;;;;10.25;8.73;;;9.20;88.90;;;;;;5027577;28;20677;-63
2022/03/22 02:28:24;;;;;;;11.05;8.52;;;9.20;88.20;;;;;;5033179;28;20296;-62
2022/03/22 02:30:52;;;;;;;13.73;10.95;;;9.10;89.20;;;;;;5033255;28;20257;-63
2022/03/22 02:33:21;;;;;;;10.60;9.48;;;9.10;87.80;;;;;;5032739;28;20200;-63
2022/03/22 02:35:49;;;;;;;10.80;8.00;;;9.10;89.00;;;;;;5033071;28;20542;-62
2022/03/22 02:38:17;;;;;;;9.32;8.32;;;9.10;89.40;;;;;;5032855;28;20228;-62
2022/03/22 02:40:46;;;;;;;11.40;8.80;;;9.10;89.20;;;;;;5032810;28;20252;-62
2022/03/22 02:43:16;;;;;;;10.30;8.90;;;9.10;88.00;;;;;;5032463;28;20292;-62
2022/03/22 02:45:44;;;;;;;10.05;8.90;;;9.10;87.70;;;;;;5030652;28;20204;-63
2022/03/22 02:48:12;;;;;;;10.48;9.40;;;9.10;89.60;;;;;;5032545;28;20185;-62
2022/03/22 02:50:40;;;;;;;9.27;8.20;;;9.10;88.50;;;;;;5029580;28;20294;-62
2022/03/22 02:53:07;;;;;;;12.50;8.82;;;9.10;88.10;;;;;;5032789;28;20208;-62
2022/03/22 02:55:36;;;;;;;11.55;9.10;;;9.10;88.10;;;;;;5032800;28;20196;-62
2022/03/22 02:58:04;;;;;;;11.15;9.55;;;9.20;87.90;;;;;;5032218;28;20243;-62
2022/03/22 03:00:34;;;;;;;10.50;9.50;;;9.20;86.90;;;;;;5031565;28;20259;-62
2022/03/22 03:03:04;;;;;;;9.23;8.23;;;9.10;87.90;;;;;;5031958;28;20262;-63
2022/03/22 03:05:33;;;;;;;10.43;9.32;;;9.20;89.40;;;;;;5032483;28;20688;-62
2022/03/22 03:08:01;;;;;;;9.70;8.70;;;9.10;88.10;;;;;;5032187;28;20296;-62
2022/03/22 03:10:29;;;;;;;10.27;9.30;;;9.10;89.00;;;;;;5032380;28;20213;-63
2022/03/22 03:13:02;;;;;;;10.63;9.55;;;9.20;88.80;;;;;;5031916;28;20232;-63
2022/03/22 03:15:29;;;;;;;9.80;8.90;;;9.10;89.50;;;;;;5026096;28;20292;-62
2022/03/22 03:17:59;;;;;;;9.63;8.63;;;9.00;88.10;;;;;;5031090;28;20244;-62
2022/03/22 03:20:28;;;;;;;11.20;9.57;;;8.90;89.70;;;;;;5026109;28;20324;-62
2022/03/22 03:22:57;;;;;;;12.13;10.10;;;8.90;89.90;;;;;;5031908;28;20678;-62
2022/03/22 03:25:25;;;;;;;9.70;8.85;;;8.90;90.10;;;;;;5032180;28;20283;-63
2022/03/22 03:27:53;;;;;;;10.65;9.23;;;8.80;90.60;;;;;;5031976;28;20189;-63
2022/03/22 03:30:21;;;;;;;11.18;10.07;;;8.80;89.60;;;;;;5032042;28;20785;-63
2022/03/22 03:32:49;;;;;;;9.80;8.77;;;8.70;90.00;;;;;;5031912;28;20201;-63
2022/03/22 03:35:18;;;;;;;14.57;9.38;;;8.60;90.60;;;;;;5031976;28;20197;-62
2022/03/22 03:37:47;;;;;;;9.73;8.80;;;8.60;90.40;;;;;;5031559;28;20213;-62
2022/03/22 03:40:15;;;;;;;10.10;9.10;;;8.60;90.10;;;;;;5031619;28;20276;-63
2022/03/22 03:42:45;;;;;;;10.80;9.65;;;8.60;91.00;;;;;;5031286;28;20653;-63
2022/03/22 03:48:00;;;;;;;9.30;8.40;;;8.50;90.60;;;;;;5031485;28;20283;-63
2022/03/22 03:50:30;;;;;;;9.43;8.52;;;8.40;91.40;;;;;;5031435;28;20233;-62
2022/03/22 03:52:57;;;;;;;8.98;8.18;;;8.40;90.50;;;;;;5031300;28;20632;-62
2022/03/22 03:55:25;;;;;;;9.80;8.80;;;8.40;90.60;;;;;;5031548;28;20280;-63
2022/03/22 03:57:53;;;;;;;11.70;9.70;;;8.40;91.00;;;;;;5031436;28;20236;-63
2022/03/22 04:00:21;;;;;;;9.68;8.70;;;8.40;90.90;;;;;;5031667;28;20237;-63
2022/03/22 04:02:49;;;;;;;11.43;9.18;;;8.40;91.30;;;;;;5030926;28;20231;-63
2022/03/22 04:05:17;;;;;;;10.27;9.23;;;8.30;90.40;;;;;;5031529;28;20212;-62
2022/03/22 04:07:46;;;;;;;9.50;8.70;;;8.20;91.20;;;;;;5031149;28;20232;-62
2022/03/22 04:10:14;;;;;;;9.57;8.77;;;8.20;91.80;;;;;;5031126;28;20300;-63
2022/03/22 04:12:42;;;;;;;10.45;9.45;;;8.30;91.70;;;;;;5030930;28;20283;-62
2022/03/22 04:15:10;;;;;;;10.63;9.63;;;8.20;88.80;;;;;;5032176;28;20624;-62
2022/03/22 04:17:39;;;;;;;10.35;9.35;;;8.20;90.60;;;;;;5041826;28;20657;-63
2022/03/22 04:20:08;;;;;;;10.40;9.40;;;8.20;91.30;;;;;;5028366;28;20287;-62
2022/03/22 04:22:37;;;;;;;11.18;10.07;;;8.20;90.50;;;;;;5030595;28;20207;-62
2022/03/22 04:25:07;;;;;;;10.23;9.23;;;8.30;91.10;;;;;;5031128;28;20204;-63
2022/03/22 04:33:06;;;;;;;10.15;9.23;;;8.40;90.60;;;;;;5030949;28;20351;-63
2022/03/22 04:35:34;;;;;;;11.00;9.18;;;8.30;91.70;;;;;;5031030;28;20745;-62
2022/03/22 04:38:02;;;;;;;11.13;9.60;;;8.20;89.40;;;;;;5030809;28;20288;-62
2022/03/22 04:40:32;;;;;;;10.07;9.07;;;8.20;90.70;;;;;;5031049;28;20320;-61
2022/03/22 04:43:00;;;;;;;10.18;9.18;;;8.20;91.20;;;;;;5030582;28;20236;-63
2022/03/22 04:45:28;;;;;;;10.63;9.52;;;8.10;90.30;;;;;;5032730;28;20232;-63
2022/03/22 04:47:56;;;;;;;12.85;10.52;;;8.10;91.60;;;;;;5030610;28;20201;-62
2022/03/22 04:50:24;;;;;;;11.05;10.05;;;8.00;88.00;;;;;;5030639;28;20319;-62
2022/03/22 04:58:33;;;;;;;9.88;8.98;;;7.70;91.70;;;;;;5030332;28;20209;-62
2022/03/22 05:01:01;;;;;;;12.05;10.95;;;7.70;90.70;;;;;;5027268;28;20216;-62
2022/03/22 05:03:29;;;;;;;11.88;9.63;;;7.50;87.30;;;;;;5030652;28;20207;-63
2022/03/22 05:08:42;;;;;;;10.65;9.55;;;7.40;92.80;;;;;;5030814;28;20228;-63
2022/03/22 05:11:12;;;;;;;11.13;8.85;;;7.50;91.60;;;;;;5030658;28;20713;-63
2022/03/22 05:13:39;;;;;;;9.88;8.98;;;7.40;90.40;;;;;;5030627;28;20240;-64
2022/03/22 05:16:08;;;;;;;10.90;9.30;;;7.20;91.00;;;;;;5032078;28;20288;-64
2022/03/22 05:18:36;;;;;;;9.80;8.90;;;7.10;92.50;;;;;;5026211;28;20209;-63
2022/03/22 05:21:04;;;;;;;11.80;10.45;;;7.20;92.30;;;;;;5030181;28;20761;-62
2022/03/22 05:23:33;;;;;;;11.82;10.48;;;7.20;92.40;;;;;;5032027;28;20215;-62
2022/03/22 05:26:01;;;;;;;10.75;9.13;;;7.20;92.90;;;;;;5034413;28;20632;-62
2022/03/22 05:28:30;;;;;;;10.60;9.48;;;7.30;92.70;;;;;;5034162;28;20200;-62
2022/03/22 05:30:58;;;;;;;9.98;9.02;;;7.00;91.60;;;;;;5033556;28;20303;-63
2022/03/22 05:33:26;;;;;;;11.57;10.38;;;7.00;92.90;;;;;;5034088;28;20283;-63
2022/03/22 05:35:54;;;;;;;10.20;9.20;;;6.90;91.40;;;;;;5033445;28;20212;-62
2022/03/22 05:38:22;;;;;;;10.30;9.40;;;7.00;94.50;;;;;;5033799;28;20247;-63
2022/03/22 05:40:50;;;;;;;11.82;10.75;;;7.00;92.30;;;;;;5031933;28;20307;-63
2022/03/22 05:43:18;;;;;;;11.05;9.27;;;7.00;91.40;;;;;;5033917;28;20648;-62
2022/03/22 05:45:48;;;;;;;10.43;9.43;;;7.10;93.80;;;;;;5029415;28;20284;-63
2022/03/22 05:48:16;;;;;;;12.35;10.25;;;7.30;93.20;;;;;;5033765;28;20572;-63
2022/03/22 05:50:44;;;;;;;10.30;9.40;;;7.20;93.10;;;;;;5033050;28;20323;-63
2022/03/22 05:53:12;;;;;;;12.10;10.90;;;7.30;92.40;;;;;;5015525;28;20320;-63
2022/03/22 05:55:41;;;;;;;12.15;10.57;;;7.30;91.20;;;;;;5017538;28;20189;-63
2022/03/22 05:58:10;;;;;;;10.95;9.90;;;7.40;92.50;;;;;;5012582;28;20292;-63
2022/03/22 06:00:38;;;;;;;12.95;11.48;;;7.50;92.40;;;;;;5010258;28;20692;-63
2022/03/22 06:03:07;;;;;;;11.60;10.40;;;7.30;89.50;;;;;;5013564;28;20205;-63
2022/03/22 06:05:37;;;;;;;13.45;12.23;;;7.40;91.70;;;;;;5014753;28;20205;-63
2022/03/22 06:08:05;;;;;;;10.85;9.80;;;7.20;90.30;;;;;;5015126;28;20225;-64
2022/03/22 06:10:39;;;;;;;13.50;12.15;;;7.30;92.70;;;;;;5011807;28;20217;-63
2022/03/22 06:13:07;;;;;;;12.90;11.68;;;7.30;90.40;;;;;;5010495;28;20634;-63
2022/03/22 06:15:34;;;;;;;11.85;10.75;;;7.30;91.80;;;;;;5013841;28;20324;-63
2022/03/22 06:18:04;;;;;;;15.63;12.30;;;7.30;92.00;;;;;;5011099;28;20220;-63
2022/03/22 06:20:34;;;;;;;12.68;11.48;;;7.30;90.30;;;;;;5014117;28;20271;-62
2022/03/22 06:23:04;;;;;;;12.50;11.20;;;7.30;90.40;;;;;;5016459;28;20196;-63
2022/03/22 06:25:34;;;;;;;12.90;11.70;;;7.50;92.30;;;;;;5017270;28;20216;-62
2022/03/22 06:28:03;;;;;;;13.55;11.55;;;7.60;91.60;;;;;;5010044;28;20208;-63
2022/03/22 06:30:32;;;;;;;12.45;11.25;;;7.50;90.50;;;;;;5016416;28;20332;-64
2022/03/22 06:33:01;;;;;;;12.90;11.55;;;7.50;90.90;;;;;;5007156;28;20256;-61
2022/03/22 06:35:30;;;;;;;13.25;11.65;;;7.50;90.50;;;;;;5014064;28;20216;-62
2022/03/22 06:38:01;;;;;;;11.88;10.77;;;7.60;93.10;;;;;;5009476;28;20211;-62
2022/03/22 06:40:33;;;;;;;13.77;11.40;;;7.70;91.20;;;;;;5014044;28;20989;-62
2022/03/22 06:43:03;;;;;;;13.43;12.05;;;7.90;90.80;;;;;;5009643;28;20208;-62
2022/03/22 06:45:35;;;;;;;13.82;11.93;;;7.80;90.30;;;;;;5013737;28;20201;-62
2022/03/22 06:48:04;;;;;;;14.30;11.23;;;7.90;90.60;;;;;;5012808;28;20250;-63
2022/03/22 06:50:32;;;;;;;12.73;10.32;;;8.00;90.10;;;;;;5013892;28;20327;-62
2022/03/22 06:53:04;;;;;;;12.40;11.27;;;8.10;91.90;;;;;;5016924;28;21657;-62
2022/03/22 06:55:32;;;;;;;12.05;10.85;;;8.30;88.60;;;;;;5011029;28;20225;-62
2022/03/22 06:58:01;;;;;;;12.27;10.98;;;8.30;89.00;;;;;;5012424;28;21168;-63
2022/03/22 07:00:31;;;;;;;13.35;11.98;;;8.40;90.30;;;;;;5012947;28;20321;-63
2022/03/22 07:03:02;;;;;;;12.20;10.55;;;8.50;89.10;;;;;;5012439;28;20209;-62
2022/03/22 07:05:31;;;;;;;14.15;12.57;;;8.40;90.00;;;;;;5011514;28;20220;-62
2022/03/22 07:07:59;;;;;;;13.57;11.52;;;8.40;88.40;;;;;;5008714;28;20299;-62
2022/03/22 07:10:30;;;;;;;12.80;11.48;;;8.50;88.70;;;;;;5010684;28;20312;-65
2022/03/22 07:13:01;;;;;;;13.05;11.75;;;8.50;88.50;;;;;;5010547;28;20318;-63
2022/03/22 07:15:31;;;;;;;12.93;11.60;;;8.60;89.30;;;;;;5012274;28;20401;-63
2022/03/22 07:18:00;;;;;;;14.40;12.23;;;8.60;90.10;;;;;;5012823;28;20220;-63
2022/03/22 07:20:30;;;;;;;12.88;11.55;;;8.70;91.50;;;;;;5017174;28;20229;-63
2022/03/22 07:22:59;;;;;;;12.98;11.70;;;8.80;89.80;;;;;;5042699;28;20192;-64
2022/03/22 07:25:29;;;;;;;13.68;12.15;;;8.90;88.40;;;;;;5030922;28;20211;-63
2022/03/22 07:27:57;;;;;;;16.08;12.50;;;9.00;89.50;;;;;;5031985;28;20316;-63
2022/03/22 07:30:25;;;;;;;13.20;11.90;;;9.20;90.20;;;;;;5032274;28;20217;-63
2022/03/22 07:32:55;;;;;;;16.02;11.65;;;9.20;88.60;;;;;;5031650;28;20624;-64
2022/03/22 07:35:23;;;;;;;12.88;11.57;;;9.20;89.10;;;;;;5025609;28;20661;-64
2022/03/22 07:37:52;;;;;;;13.75;12.35;;;9.40;90.60;;;;;;5025600;28;20224;-64
2022/03/22 07:40:20;;;;;;;13.77;12.38;;;9.50;89.40;;;;;;5025369;28;20693;-64
2022/03/22 07:42:49;;;;;;;13.55;12.15;;;9.50;87.00;;;;;;5025472;28;20606;-64
2022/03/22 07:45:19;;;;;;;14.52;13.02;;;9.60;88.30;;;;;;5036935;28;20292;-64
2022/03/22 07:47:47;;;;;;;12.60;11.38;;;9.70;88.10;;;;;;5029193;28;20224;-64
2022/03/22 07:53:07;;;;;;;14.15;12.77;;;10.00;87.10;;;;;;4969843;28;20694;-62
2022/03/22 07:55:37;;;;;;;14.00;12.60;;;10.20;85.30;;;;;;4972677;28;20234;-63
2022/03/22 07:58:06;;;;;;;13.73;12.38;;;10.30;86.00;;;;;;4972874;28;20206;-63
2022/03/22 08:00:37;;;;;;;17.05;12.38;;;10.40;86.20;;;;;;4972760;28;20218;-64
2022/03/22 08:03:09;;;;;;;14.48;13.07;;;10.50;86.00;;;;;;4972197;28;20202;-64
2022/03/22 08:05:39;;;;;;;15.13;12.38;;;10.50;86.30;;;;;;4972828;28;20285;-64
2022/03/22 08:08:07;;;;;;;14.30;12.80;;;10.60;86.10;;;;;;4972763;28;20210;-63
2022/03/22 08:10:55;;;;;;;14.13;12.73;;;10.80;86.50;;;;;;4972721;28;20584;-63
2022/03/22 08:13:24;;;;;;;13.20;11.90;;;10.90;84.50;;;;;;4972120;28;20198;-63
2022/03/22 08:15:52;;;;;;;14.40;11.85;;;11.10;85.00;;;;;;4972518;28;20242;-63
2022/03/22 08:18:20;;;;;;;16.48;13.60;;;11.20;83.30;;;;;;4972593;28;20202;-63
2022/03/22 08:20:48;;;;;;;14.68;13.20;;;11.40;85.20;;;;;;4972397;28;20226;-63
2022/03/22 08:23:16;;;;;;;16.17;12.48;;;11.60;83.60;;;;;;4972070;28;20202;-63
2022/03/22 08:25:46;;;;;;;14.30;12.63;;;11.80;82.50;;;;;;4972436;28;20293;-63
2022/03/22 08:28:14;;;;;;;19.52;13.57;;;12.10;81.50;;;;;;4972393;28;20253;-63
2022/03/22 08:30:44;;;;;;;15.48;12.70;;;12.20;78.50;;;;;;4972467;28;20285;-63
2022/03/22 08:33:12;;;;;;;16.95;11.77;;;12.40;79.10;;;;;;4971963;28;20207;-62
2022/03/22 08:35:43;;;;;;;13.57;11.57;;;12.60;78.00;;;;;;4972380;28;20269;-63
2022/03/22 08:38:11;;;;;;;13.70;12.25;;;12.70;75.60;;;;;;4972374;28;20233;-63
2022/03/22 08:40:40;;;;;;;13.60;12.32;;;12.90;76.30;;;;;;4972094;28;20202;-63
2022/03/22 08:43:08;;;;;;;11.30;10.13;;;13.00;76.50;;;;;;4971995;28;20629;-62
2022/03/22 08:45:37;;;;;;;14.30;11.48;;;13.20;73.60;;;;;;4970297;28;20277;-62
2022/03/22 08:48:11;;;;;;;11.60;10.32;;;13.10;72.00;;;;;;4967289;28;20196;-62
2022/03/22 08:50:41;;;;;;;12.10;10.90;;;13.20;72.20;;;;;;4966386;28;20222;-62
2022/03/22 08:53:10;;;;;;;15.88;12.27;;;13.30;70.40;;;;;;4971806;28;20265;-64
2022/03/22 08:55:44;;;;;;;12.43;11.23;;;13.30;68.70;;;;;;4972196;28;20203;-62
2022/03/22 08:58:13;;;;;;;12.27;11.07;;;13.40;69.70;;;;;;4973242;28;20606;-62
2022/03/22 09:00:41;;;;;;;13.23;11.70;;;13.50;69.90;;;;;;4975773;28;20662;-63
2022/03/22 09:03:11;;;;;;;12.43;11.05;;;13.80;71.80;;;;;;4975586;28;20210;-62
2022/03/22 09:08:25;;;;;;;12.25;10.68;;;13.90;69.90;;;;;;4975929;28;20253;-63
2022/03/22 09:10:54;;;;;;;12.10;11.02;;;14.00;67.90;;;;;;4975882;28;20245;-62
2022/03/22 09:13:22;;;;;;;12.40;11.00;;;14.10;67.70;;;;;;4975537;28;20234;-62
2022/03/22 09:15:51;;;;;;;12.60;11.40;;;14.10;68.10;;;;;;4971202;28;20202;-62
2022/03/22 09:18:22;;;;;;;13.18;11.88;;;14.20;68.00;;;;;;4974657;28;20297;-64
2022/03/22 09:20:53;;;;;;;12.27;10.98;;;14.30;67.40;;;;;;4975639;28;20640;-63
2022/03/22 09:23:21;;;;;;;11.88;10.68;;;14.30;67.00;;;;;;4975634;28;20199;-62
2022/03/22 09:25:50;;;;;;;14.45;12.30;;;14.50;67.90;;;;;;4975634;28;20233;-64
2022/03/22 09:28:18;;;;;;;12.95;11.60;;;14.50;66.60;;;;;;4975532;28;20827;-64
2022/03/22 09:30:48;;;;;;;12.70;11.60;;;14.40;67.90;;;;;;4975372;28;20222;-63
2022/03/22 09:33:16;;;;;;;13.48;12.07;;;14.60;67.50;;;;;;4975361;28;20554;-63
2022/03/22 09:35:47;;;;;;;11.88;10.80;;;14.80;67.50;;;;;;4975646;28;20245;-63
2022/03/22 09:38:17;;;;;;;12.07;10.88;;;14.90;66.80;;;;;;4969345;28;20207;-64
2022/03/22 09:40:45;;;;;;;13.10;11.80;;;15.10;68.50;;;;;;4969029;28;20758;-63
2022/03/22 09:43:13;;;;;;;13.40;12.10;;;15.30;67.20;;;;;;4968974;28;20249;-62
2022/03/22 09:45:44;;;;;;;12.57;11.30;;;15.40;67.10;;;;;;4968554;28;20612;-63
2022/03/22 09:48:16;;;;;;;14.00;12.70;;;15.50;66.10;;;;;;4964364;28;20293;-63
2022/03/22 09:53:31;;;;;;;13.48;12.15;;;15.70;65.10;;;;;;4974873;28;20235;-63
2022/03/22 09:55:59;;;;;;;13.20;11.90;;;15.90;67.40;;;;;;4975006;28;20293;-63
2022/03/22 09:58:27;;;;;;;14.40;11.40;;;16.30;66.90;;;;;;4974852;28;20234;-63
2022/03/22 10:00:55;;;;;;;11.88;10.82;;;16.60;62.70;;;;;;4974641;28;20258;-64
2022/03/22 10:03:23;;;;;;;12.25;11.15;;;16.70;62.90;;;;;;4974832;28;20211;-63
2022/03/22 10:06:01;;;;;;;12.10;10.93;;;16.70;61.20;;;;;;4974951;28;20372;-63
2022/03/22 10:08:30;;;;;;;12.10;10.95;;;16.70;62.50;;;;;;4974506;28;20213;-64
2022/03/22 10:11:03;;;;;;;10.63;9.50;;;16.80;62.10;;;;;;4974834;28;20230;-63
2022/03/22 10:13:33;;;;;;;18.10;11.60;;;16.80;60.90;;;;;;4974719;28;20241;-64
2022/03/22 10:16:02;;;;;;;12.20;10.13;;;16.80;62.50;;;;;;4968056;28;20203;-63
2022/03/22 10:18:35;;;;;;;13.20;10.15;;;16.90;61.80;;;;;;4974164;28;20660;-64
2022/03/22 10:21:05;;;;;;;11.77;10.52;;;16.90;60.40;;;;;;4968300;28;20250;-63
2022/03/22 10:23:34;;;;;;;11.88;10.68;;;17.10;60.70;;;;;;4974618;28;20210;-63
2022/03/22 10:26:04;;;;;;;13.10;11.80;;;17.10;61.10;;;;;;4974508;28;20238;-64
2022/03/22 10:28:33;;;;;;;13.40;11.07;;;17.00;60.70;;;;;;4974580;28;20253;-63
2022/03/22 10:31:01;;;;;;;11.88;10.68;;;17.20;61.90;;;;;;4974253;28;20273;-63
2022/03/22 10:33:29;;;;;;;12.05;10.85;;;17.50;59.90;;;;;;4974141;28;20241;-64
2022/03/22 10:35:57;;;;;;;11.25;10.13;;;17.60;60.00;;;;;;4974625;28;20617;-64
2022/03/22 10:38:27;;;;;;;12.23;11.10;;;17.60;58.50;;;;;;4974468;28;20262;-63
2022/03/22 10:40:56;;;;;;;11.75;10.75;;;17.60;60.10;;;;;;4974053;28;20258;-63
2022/03/22 10:43:26;;;;;;;13.52;11.02;;;17.70;60.20;;;;;;4973752;28;20218;-63
2022/03/22 10:46:00;;;;;;;11.45;10.38;;;17.60;59.70;;;;;;4973097;28;20203;-63
2022/03/22 10:48:32;;;;;;;13.57;11.38;;;18.00;60.30;;;;;;4988938;28;20293;-64
2022/03/22 10:51:00;;;;;;;12.18;11.05;;;18.30;59.20;;;;;;4973643;28;20238;-63
2022/03/22 10:53:31;;;;;;;11.80;10.60;;;18.40;59.40;;;;;;4973807;28;20249;-63
2022/03/22 10:56:01;;;;;;;11.77;10.63;;;18.40;58.80;;;;;;4974181;28;20297;-65
2022/03/22 10:58:30;;;;;;;11.45;10.45;;;18.40;60.10;;;;;;4973775;28;20219;-65
2022/03/22 11:01:00;;;;;;;12.50;11.30;;;18.70;59.30;;;;;;4973992;28;20277;-64
2022/03/22 11:03:32;;;;;;;12.10;11.10;;;19.10;58.50;;;;;;4973640;28;20273;-64
2022/03/22 11:06:03;;;;;;;17.63;12.00;;;19.40;58.40;;;;;;4974082;28;20265;-65
2022/03/22 11:08:33;;;;;;;11.07;10.07;;;18.90;59.60;;;;;;4973949;28;20698;-64
2022/03/22 11:11:01;;;;;;;12.20;11.20;;;18.80;58.30;;;;;;4973351;28;20239;-64
2022/03/22 11:13:29;;;;;;;12.40;10.65;;;18.80;58.50;;;;;;4973386;28;20207;-64
2022/03/22 11:16:00;;;;;;;11.50;10.40;;;19.10;58.50;;;;;;4971652;28;20302;-64
2022/03/22 11:18:30;;;;;;;12.73;11.43;;;19.40;58.50;;;;;;4972646;28;20207;-64
2022/03/22 11:20:59;;;;;;;11.88;10.68;;;19.50;57.20;;;;;;4972436;28;20723;-64
2022/03/22 11:23:29;;;;;;;12.43;11.32;;;19.50;58.20;;;;;;4972867;28;20223;-64
2022/03/22 11:26:08;;;;;;;12.65;11.55;;;19.80;56.40;;;;;;4973547;28;20206;-65
2022/03/22 11:28:38;;;;;;;11.90;10.80;;;20.00;57.50;;;;;;4973376;28;20234;-64
2022/03/22 11:31:09;;;;;;;11.20;10.15;;;20.20;57.60;;;;;;4973239;28;20250;-64
2022/03/22 11:36:26;;;;;;;12.10;11.00;;;20.10;57.00;;;;;;4973355;28;20730;-64
2022/03/22 11:38:56;;;;;;;11.90;10.68;;;20.40;56.20;;;;;;4973290;28;20297;-64
2022/03/22 11:44:15;;;;;;;12.45;11.25;;;20.80;56.00;;;;;;4972931;28;20202;-64
2022/03/22 11:46:45;;;;;;;11.15;10.10;;;21.20;56.40;;;;;;4970420;28;20540;-64
2022/03/22 11:49:18;;;;;;;12.45;11.23;;;21.10;55.70;;;;;;4972883;28;20260;-63
2022/03/22 11:51:48;;;;;;;11.88;10.85;;;20.70;56.00;;;;;;4972710;28;20297;-64
2022/03/22 11:54:16;;;;;;;11.50;10.43;;;20.70;55.80;;;;;;4972829;28;20626;-64
2022/03/22 11:56:50;;;;;;;11.73;10.52;;;20.90;56.00;;;;;;4972766;28;20219;-64
2022/03/22 11:59:19;;;;;;;13.18;11.68;;;20.70;55.00;;;;;;4972785;28;20205;-65
2022/03/22 12:02:02;;;;;;;13.10;10.50;;;20.80;55.50;;;;;;4972829;28;20719;-64
2022/03/22 12:04:38;;;;;;;9.82;8.85;;;21.50;55.60;;;;;;4972918;28;20668;-65
2022/03/22 12:07:08;;;;;;;11.30;10.40;;;22.00;54.70;;;;;;4972732;28;20747;-64
2022/03/22 12:09:40;;;;;;;12.18;10.80;;;22.20;54.40;;;;;;4972703;28;20213;-66
2022/03/22 12:12:14;;;;;;;11.75;10.80;;;22.00;54.60;;;;;;4966372;28;20223;-64
2022/03/22 12:14:45;;;;;;;11.32;10.43;;;22.10;53.80;;;;;;4972813;28;20242;-65
2022/03/22 12:17:13;;;;;;;10.80;9.70;;;22.30;53.60;;;;;;4967541;28;20700;-64
2022/03/22 12:19:41;;;;;;;17.70;10.80;;;22.40;54.20;;;;;;4972258;28;20207;-65
2022/03/22 12:22:09;;;;;;;10.82;9.93;;;22.70;53.00;;;;;;4971912;28;20685;-64
2022/03/22 12:24:37;;;;;;;11.48;10.27;;;22.80;53.30;;;;;;4972549;28;20294;-64
2022/03/22 12:27:08;;;;;;;11.20;10.02;;;22.90;51.80;;;;;;4972497;28;20676;-64
2022/03/22 12:29:42;;;;;;;11.35;10.23;;;22.70;52.30;;;;;;4972379;28;20244;-65
2022/03/22 12:32:15;;;;;;;10.57;9.57;;;22.70;52.40;;;;;;4971729;28;20272;-64
2022/03/22 12:34:44;;;;;;;10.20;9.13;;;22.70;52.30;;;;;;4972476;28;20293;-64
2022/03/22 12:37:13;;;;;;;13.32;9.82;;;22.90;52.30;;;;;;4971034;28;20215;-65
2022/03/22 12:39:43;;;;;;;12.18;11.07;;;23.30;51.90;;;;;;4972066;28;20710;-64
2022/03/22 12:42:25;;;;;;;10.95;10.05;;;23.50;52.50;;;;;;4972275;28;20218;-64
2022/03/22 12:44:55;;;;;;;11.60;10.60;;;23.50;52.50;;;;;;4972214;28;20645;-65
2022/03/22 12:47:38;;;;;;;10.38;9.45;;;23.60;51.50;;;;;;4967165;28;20199;-64
2022/03/22 12:50:09;;;;;;;11.35;10.25;;;23.30;51.20;;;;;;4972088;28;20240;-65
2022/03/22 12:52:37;;;;;;;10.52;9.73;;;23.20;51.30;;;;;;4971744;28;20277;-65
2022/03/22 12:55:10;;;;;;;11.82;10.57;;;23.20;51.20;;;;;;4972181;28;20414;-65
2022/03/22 12:57:41;;;;;;;11.60;10.57;;;23.30;51.90;;;;;;4972264;28;20617;-64
2022/03/22 13:00:12;;;;;;;10.70;9.70;;;23.30;51.00;;;;;;4971989;28;20214;-64
2022/03/22 13:02:40;;;;;;;11.57;10.43;;;23.80;51.70;;;;;;4971549;28;20234;-65
2022/03/22 13:05:08;;;;;;;10.57;9.77;;;24.10;50.90;;;;;;4972246;28;20597;-65
2022/03/22 13:07:36;;;;;;;11.00;9.90;;;24.20;51.10;;;;;;4972073;28;20622;-65
2022/03/22 13:12:52;;;;;;;11.95;10.65;;;24.00;50.80;;;;;;4971614;28;20210;-65
2022/03/22 13:15:22;;;;;;;11.65;10.45;;;24.70;51.10;;;;;;4968572;28;20294;-64
2022/03/22 13:17:53;;;;;;;10.85;9.75;;;24.40;50.40;;;;;;4966036;28;20210;-64
2022/03/22 13:20:24;;;;;;;11.60;10.32;;;24.20;50.60;;;;;;4972238;28;20230;-64
2022/03/22 13:22:54;;;;;;;11.30;10.30;;;24.40;50.10;;;;;;4965363;28;20274;-65
2022/03/22 13:25:29;;;;;;;11.43;10.32;;;24.60;50.10;;;;;;4971955;28;20285;-65